Terminal Aerodrome Forecast
Issued by NWS

Home | Current Version | Previous Version | Graphics & Text | Print | Product List | Glossary On
Versions: 1 2 3 4 5 6 7 8 9 10 11 12 13 14 15 16 17 18 19 20 21 22 23
000
FTUS43 KPAH 271623 AAB
TAFCGI
TAF AMD
KCGI 271623Z 2716/2812 23012G20KT P6SM VCTS SCT010CB BKN040
      TEMPO 2717/2719 3SM TSRA OVC010CB
     FM271900 21008KT P6SM VCTS BKN040CB
      TEMPO 2719/2722 2SM TSRA BR OVC025CB
     FM280000 32004KT P6SM BKN035
     FM280600 34006KT 4SM BR OVC015=

USA.gov is the U.S. government's official web portal to all federal, state and local government web resources and services.